»·PEaware :: N291DB KCMA-KONT

N291DB :: KCMA-KONT

FLIGHT INFORMATION

Flight Status: Arrived
Operator: Privately registered:
United States
More flights under this callsign
Pilot: Joshua T. (23864)
Aircraft: BEECH AIRCRAFT SUPER KING AIR 350
(B350)
More flights by this aircraft type
Origin: KCMA Camarillo
United States
Destination: KONT Ontario Intl
United States
More flights between these airports :: More routes between these airports
Route: +VTU044R GINNA V326 VNY V186 ITSME V264 POM V197 PDZ
File this flight plan on PilotEdge
Remarks: TEC route VTUP16
Altitude:
(Current/Filed)
7,000ft
Speed:
(Current/Filed)
220kts
Departed: 19-Jul-20 06:01 PM
Arrived: 19-Jul-20 06:33 PM
Distance/Time
Traveled:
74nm/0:32
Distance/Time
To Go:
Arrived

Flight Plot

Page will automatically refresh every two minutes.


Map Options




Map Legend


Flown Route
Filed Route
Departure Airport
Arrival Airport
Navaid (VOR, NDB)
Fix

Horizontal Profiles

Position Reports

Time Latitude Longitude Heading Altitude Ground
Speed
19-Jul-20 17:40 34.210414 -119.078332 180 79ft 0kts
19-Jul-20 17:41 34.210414 -119.078332 180 79ft 0kts
19-Jul-20 17:42 34.210414 -119.078332 180 79ft 0kts
19-Jul-20 17:43 34.210414 -119.078332 180 79ft 0kts
19-Jul-20 17:44 34.210413 -119.078332 180 79ft 0kts
19-Jul-20 17:45 34.210412 -119.078332 180 79ft 0kts
19-Jul-20 17:46 34.210411 -119.078332 180 79ft 0kts
19-Jul-20 17:47 34.210410 -119.078332 180 79ft 0kts
19-Jul-20 17:48 34.210409 -119.078332 180 79ft 0kts
19-Jul-20 17:49 34.210408 -119.078332 180 79ft 0kts
19-Jul-20 17:50 34.210407 -119.078332 180 79ft 0kts
19-Jul-20 17:51 34.210406 -119.078332 180 79ft 0kts
19-Jul-20 17:52 34.210425 -119.078198 334 79ft 0kts
19-Jul-20 17:53 34.210426 -119.078198 334 79ft 0kts
19-Jul-20 17:54 34.210427 -119.078199 334 79ft 0kts
19-Jul-20 17:55 34.210716 -119.078288 353 79ft 0kts
19-Jul-20 17:56 34.211180 -119.079543 269 79ft 8kts
19-Jul-20 17:57 34.211251 -119.083245 269 79ft 10kts
19-Jul-20 17:58 34.212660 -119.084611 359 79ft 0kts
19-Jul-20 17:59 34.213651 -119.084651 286 79ft 3kts
19-Jul-20 18:00 34.214108 -119.112311 271 635ft 164kts
19-Jul-20 18:01 34.212692 -119.171541 266 2856ft 185kts
19-Jul-20 18:02 34.210175 -119.237933 269 3933ft 200kts
19-Jul-20 18:03 34.236790 -119.289833 352 4991ft 212kts
19-Jul-20 18:04 34.278903 -119.247549 79 6471ft 221kts
19-Jul-20 18:05 34.277404 -119.169416 92 6998ft 245kts
19-Jul-20 18:06 34.272447 -119.088563 95 6986ft 239kts
19-Jul-20 18:07 34.265061 -119.008629 95 7006ft 238kts
19-Jul-20 18:08 34.257545 -118.928846 96 7008ft 238kts
19-Jul-20 18:09 34.250047 -118.849136 96 7005ft 238kts
19-Jul-20 18:10 34.244301 -118.769292 93 7005ft 238kts
19-Jul-20 18:11 34.239250 -118.689401 93 7003ft 238kts
19-Jul-20 18:12 34.234061 -118.609274 93 7027ft 238kts
19-Jul-20 18:13 34.225460 -118.529995 103 7033ft 239kts
19-Jul-20 18:14 34.207673 -118.452787 106 7032ft 239kts
19-Jul-20 18:15 34.187983 -118.376133 108 7032ft 239kts
19-Jul-20 18:16 34.165514 -118.300530 109 7011ft 239kts
19-Jul-20 18:17 34.142585 -118.225303 109 7006ft 238kts
19-Jul-20 18:18 34.119624 -118.150118 109 7003ft 238kts
19-Jul-20 18:19 34.096642 -118.075161 109 6999ft 238kts
19-Jul-20 18:20 34.082923 -117.997669 93 7004ft 237kts
19-Jul-20 18:21 34.078953 -117.917950 91 7002ft 237kts
19-Jul-20 18:22 34.077060 -117.838523 89 7004ft 237kts
19-Jul-20 18:24 34.060925 -117.762948 121 7006ft 239kts
19-Jul-20 18:25 34.036853 -117.690423 96 6607ft 232kts
19-Jul-20 18:26 34.027808 -117.614894 104 5484ft 219kts
19-Jul-20 18:27 34.013892 -117.544319 98 4257ft 207kts
19-Jul-20 18:28 34.007835 -117.476512 77 3306ft 194kts
19-Jul-20 18:29 34.041633 -117.456626 343 2888ft 131kts
19-Jul-20 18:30 34.053060 -117.494448 272 2441ft 127kts
19-Jul-20 18:31 34.054699 -117.533323 271 1909ft 115kts
19-Jul-20 18:32 34.055080 -117.570428 264 1213ft 115kts
19-Jul-20 18:33 34.054967 -117.598224 268 948ft 32kts
19-Jul-20 18:34 34.054205 -117.602387 227 948ft 2kts
19-Jul-20 18:35 34.053873 -117.608492 270 948ft 20kts
19-Jul-20 18:36 34.052587 -117.612868 179 948ft 5kts
19-Jul-20 18:37 34.052210 -117.612867 179 948ft 0kts
19-Jul-20 18:38 34.052210 -117.612867 179 948ft 0kts
19-Jul-20 18:39 34.052210 -117.612867 179 948ft 0kts

Navigation Log

Ident Type
Flight plan parsing failed, navigation log unavailable